Miami Gardens, Florida
Current Conditions -  °F | °C
As of 5:53 PM on Sunday 21 Dec 2014 (Local Time) from KOPF Reporting Station
Clear Clear  
Wind Chill: 73°   Ceiling: Unl
Heat Index: 73°   Visibility: 10mi
Dew Point: 64°   Wind: 7mph
Humidity: 73%   Direction: 130°SE
Pressure: 30.04"   Gusts: NA
Location:  25.9357°N, 80.3817°W
Report Text: KOPF 212253Z 13006KT 10SM CLR 23/18 A3004 RMK AO2 SLP174 T02280178
Loading
Personal Weather Stations






























Interactive Weather Map New forecast layout! Learn more

10-Day Weather Forecast

Advertisements
Track Severe Weather on mobile